sensor_id;sensor_type;location;lat;lon;timestamp;P1;P2;P0
74589;PMS5003;63093;56.112;40.348;2022-09-13T00:01:23;12.25;10.00;6.50
74589;PMS5003;63093;56.112;40.348;2022-09-13T00:03:24;10.25;9.00;7.00
74589;PMS5003;63093;56.112;40.348;2022-09-13T00:05:25;7.75;7.00;6.00
74589;PMS5003;63093;56.112;40.348;2022-09-13T00:07:26;8.75;8.00;4.75
74589;PMS5003;63093;56.112;40.348;2022-09-13T00:09:26;9.00;7.75;6.00
74589;PMS5003;63093;56.112;40.348;2022-09-13T00:11:28;11.00;9.75;6.00
74589;PMS5003;63093;56.112;40.348;2022-09-13T00:13:29;9.25;9.00;7.00
74589;PMS5003;63093;56.112;40.348;2022-09-13T00:15:29;9.00;8.50;7.00
74589;PMS5003;63093;56.112;40.348;2022-09-13T00:17:30;7.25;6.75;4.00
74589;PMS5003;63093;56.112;40.348;2022-09-13T00:19:31;10.50;8.50;6.50
74589;PMS5003;63093;56.112;40.348;2022-09-13T00:21:31;11.50;11.00;7.00
74589;PMS5003;63093;56.112;40.348;2022-09-13T00:23:32;10.00;9.50;6.00
74589;PMS5003;63093;56.112;40.348;2022-09-13T00:25:32;9.25;9.00;6.00
74589;PMS5003;63093;56.112;40.348;2022-09-13T00:27:33;9.25;9.25;7.00
74589;PMS5003;63093;56.112;40.348;2022-09-13T00:29:34;9.00;9.00;6.75
74589;PMS5003;63093;56.112;40.348;2022-09-13T00:31:34;10.00;9.50;6.25
74589;PMS5003;63093;56.112;40.348;2022-09-13T00:33:35;9.50;9.25;6.75
74589;PMS5003;63093;56.112;40.348;2022-09-13T00:35:35;9.00;7.25;5.00
74589;PMS5003;63093;56.112;40.348;2022-09-13T00:37:36;7.25;7.25;6.00
74589;PMS5003;63093;56.112;40.348;2022-09-13T00:39:36;10.25;9.00;6.00
74589;PMS5003;63093;56.112;40.348;2022-09-13T00:41:37;12.00;12.00;6.00
74589;PMS5003;63093;56.112;40.348;2022-09-13T00:45:50;8.50;8.50;6.00
74589;PMS5003;63093;56.112;40.348;2022-09-13T00:47:58;7.75;6.75;5.00
74589;PMS5003;63093;56.112;40.348;2022-09-13T00:50:01;8.25;8.25;5.50
74589;PMS5003;63093;56.112;40.348;2022-09-13T00:52:03;10.00;10.00;5.00
74589;PMS5003;63093;56.112;40.348;2022-09-13T00:54:06;6.75;6.75;5.00
74589;PMS5003;63093;56.112;40.348;2022-09-13T00:56:08;6.00;6.00;4.00
74589;PMS5003;63093;56.112;40.348;2022-09-13T00:58:21;8.75;8.75;5.50
74589;PMS5003;63093;56.112;40.348;2022-09-13T01:00:23;7.00;7.00;6.00
74589;PMS5003;63093;56.112;40.348;2022-09-13T01:02:24;6.25;5.50;3.25
74589;PMS5003;63093;56.112;40.348;2022-09-13T01:04:25;8.25;7.00;4.25
74589;PMS5003;63093;56.112;40.348;2022-09-13T01:06:27;8.00;8.00;4.50
74589;PMS5003;63093;56.112;40.348;2022-09-13T01:08:30;7.50;7.50;5.00
74589;PMS5003;63093;56.112;40.348;2022-09-13T01:10:31;11.50;10.75;5.50
74589;PMS5003;63093;56.112;40.348;2022-09-13T01:12:54;6.50;6.25;3.50
74589;PMS5003;63093;56.112;40.348;2022-09-13T01:14:58;8.00;8.00;5.25
74589;PMS5003;63093;56.112;40.348;2022-09-13T01:17:00;6.20;6.20;4.00
74589;PMS5003;63093;56.112;40.348;2022-09-13T01:19:00;6.75;6.00;4.00
74589;PMS5003;63093;56.112;40.348;2022-09-13T01:25:09;10.25;8.50;6.00
74589;PMS5003;63093;56.112;40.348;2022-09-13T01:27:19;9.00;9.00;6.00
74589;PMS5003;63093;56.112;40.348;2022-09-13T01:35:54;6.50;6.50;4.00
74589;PMS5003;63093;56.112;40.348;2022-09-13T01:38:31;6.50;6.00;5.00
74589;PMS5003;63093;56.112;40.348;2022-09-13T01:40:26;7.00;7.00;5.00
74589;PMS5003;63093;56.112;40.348;2022-09-13T01:55:41;8.00;7.75;5.50
74589;PMS5003;63093;56.112;40.348;2022-09-13T01:57:48;8.75;8.00;6.00
74589;PMS5003;63093;56.112;40.348;2022-09-13T01:59:52;8.00;8.00;5.00
74589;PMS5003;63093;56.112;40.348;2022-09-13T02:01:56;12.50;12.50;6.00
74589;PMS5003;63093;56.112;40.348;2022-09-13T02:04:11;10.75;8.00;5.00
74589;PMS5003;63093;56.112;40.348;2022-09-13T02:06:14;10.00;8.00;5.00
74589;PMS5003;63093;56.112;40.348;2022-09-13T02:08:18;7.75;7.75;5.00
74589;PMS5003;63093;56.112;40.348;2022-09-13T02:10:26;7.25;7.25;5.00
74589;PMS5003;63093;56.112;40.348;2022-09-13T02:12:29;9.75;7.50;5.00
74589;PMS5003;63093;56.112;40.348;2022-09-13T02:14:33;8.00;8.00;5.50
74589;PMS5003;63093;56.112;40.348;2022-09-13T02:18:42;7.00;7.00;5.00
74589;PMS5003;63093;56.112;40.348;2022-09-13T02:20:46;9.00;9.00;6.25
74589;PMS5003;63093;56.112;40.348;2022-09-13T02:22:50;5.75;5.75;5.25
74589;PMS5003;63093;56.112;40.348;2022-09-13T02:24:53;8.50;8.50;6.00
74589;PMS5003;63093;56.112;40.348;2022-09-13T02:26:55;6.00;6.00;5.50
74589;PMS5003;63093;56.112;40.348;2022-09-13T02:28:57;9.75;7.50;5.00
74589;PMS5003;63093;56.112;40.348;2022-09-13T02:31:01;6.75;6.75;5.00
74589;PMS5003;63093;56.112;40.348;2022-09-13T02:33:05;9.00;7.80;5.20
74589;PMS5003;63093;56.112;40.348;2022-09-13T02:35:10;8.80;8.80;5.20
74589;PMS5003;63093;56.112;40.348;2022-09-13T02:37:13;8.75;8.75;7.00
74589;PMS5003;63093;56.112;40.348;2022-09-13T02:39:14;9.00;7.50;4.50
74589;PMS5003;63093;56.112;40.348;2022-09-13T02:43:17;11.50;11.50;5.25
74589;PMS5003;63093;56.112;40.348;2022-09-13T02:45:19;9.25;7.50;4.25
74589;PMS5003;63093;56.112;40.348;2022-09-13T02:49:47;12.00;9.00;5.50
74589;PMS5003;63093;56.112;40.348;2022-09-13T02:54:14;8.75;8.00;5.00
74589;PMS5003;63093;56.112;40.348;2022-09-13T02:58:30;9.00;8.50;6.00
74589;PMS5003;63093;56.112;40.348;2022-09-13T03:00:34;7.75;7.75;5.75
74589;PMS5003;63093;56.112;40.348;2022-09-13T03:02:34;7.25;7.25;4.75
74589;PMS5003;63093;56.112;40.348;2022-09-13T03:04:37;9.00;8.00;5.00
74589;PMS5003;63093;56.112;40.348;2022-09-13T03:06:38;8.75;8.75;5.50
74589;PMS5003;63093;56.112;40.348;2022-09-13T03:08:39;8.00;7.40;4.00
74589;PMS5003;63093;56.112;40.348;2022-09-13T03:10:43;8.50;8.50;6.00
74589;PMS5003;63093;56.112;40.348;2022-09-13T03:13:01;9.25;9.25;6.25
74589;PMS5003;63093;56.112;40.348;2022-09-13T03:17:28;7.50;7.50;5.50
74589;PMS5003;63093;56.112;40.348;2022-09-13T03:24:16;7.25;6.50;4.00
74589;PMS5003;63093;56.112;40.348;2022-09-13T03:26:23;8.00;7.75;4.75
74589;PMS5003;63093;56.112;40.348;2022-09-13T03:31:04;9.20;8.00;5.00
74589;PMS5003;63093;56.112;40.348;2022-09-13T03:33:31;6.00;6.00;5.00
74589;PMS5003;63093;56.112;40.348;2022-09-13T03:37:55;7.50;7.50;6.00
74589;PMS5003;63093;56.112;40.348;2022-09-13T03:40:07;7.25;7.25;3.50
74589;PMS5003;63093;56.112;40.348;2022-09-13T03:42:13;5.25;5.25;4.25
74589;PMS5003;63093;56.112;40.348;2022-09-13T03:44:17;8.00;8.00;5.00
74589;PMS5003;63093;56.112;40.348;2022-09-13T03:46:20;8.50;8.50;4.75
74589;PMS5003;63093;56.112;40.348;2022-09-13T03:48:23;8.00;8.00;5.50
74589;PMS5003;63093;56.112;40.348;2022-09-13T03:50:25;7.00;6.00;3.75
74589;PMS5003;63093;56.112;40.348;2022-09-13T03:52:26;8.25;6.75;5.00
74589;PMS5003;63093;56.112;40.348;2022-09-13T03:54:29;10.00;8.00;5.00
74589;PMS5003;63093;56.112;40.348;2022-09-13T03:56:31;8.75;8.25;5.00
74589;PMS5003;63093;56.112;40.348;2022-09-13T03:58:31;9.25;8.00;5.00
74589;PMS5003;63093;56.112;40.348;2022-09-13T04:00:32;7.50;6.50;4.25
74589;PMS5003;63093;56.112;40.348;2022-09-13T04:02:33;7.00;7.00;4.75
74589;PMS5003;63093;56.112;40.348;2022-09-13T04:04:33;8.25;7.00;4.00
74589;PMS5003;63093;56.112;40.348;2022-09-13T04:06:33;7.50;7.00;4.50
74589;PMS5003;63093;56.112;40.348;2022-09-13T04:08:34;7.50;7.50;5.00
74589;PMS5003;63093;56.112;40.348;2022-09-13T04:10:35;8.00;7.00;6.00
74589;PMS5003;63093;56.112;40.348;2022-09-13T04:12:35;9.75;8.75;4.50
74589;PMS5003;63093;56.112;40.348;2022-09-13T04:14:36;8.00;6.75;5.25
74589;PMS5003;63093;56.112;40.348;2022-09-13T04:16:36;6.00;6.00;4.25
74589;PMS5003;63093;56.112;40.348;2022-09-13T04:18:37;8.75;7.75;4.50
74589;PMS5003;63093;56.112;40.348;2022-09-13T04:20:37;6.75;6.75;4.25
74589;PMS5003;63093;56.112;40.348;2022-09-13T04:22:38;10.25;9.00;5.00
74589;PMS5003;63093;56.112;40.348;2022-09-13T04:24:38;6.75;4.50;2.00
74589;PMS5003;63093;56.112;40.348;2022-09-13T04:26:39;8.25;8.00;5.25
74589;PMS5003;63093;56.112;40.348;2022-09-13T04:28:39;8.00;8.00;4.75
74589;PMS5003;63093;56.112;40.348;2022-09-13T04:30:42;6.50;6.50;4.00
74589;PMS5003;63093;56.112;40.348;2022-09-13T04:32:43;7.75;6.50;3.50
74589;PMS5003;63093;56.112;40.348;2022-09-13T04:34:43;7.00;5.00;3.00
74589;PMS5003;63093;56.112;40.348;2022-09-13T04:36:45;8.50;8.00;5.00
74589;PMS5003;63093;56.112;40.348;2022-09-13T04:38:45;8.75;6.25;3.75
74589;PMS5003;63093;56.112;40.348;2022-09-13T04:40:50;4.75;4.75;2.00
74589;PMS5003;63093;56.112;40.348;2022-09-13T04:42:51;10.00;7.75;5.00
74589;PMS5003;63093;56.112;40.348;2022-09-13T04:44:51;9.75;8.50;5.00
74589;PMS5003;63093;56.112;40.348;2022-09-13T04:46:52;9.00;8.00;5.75
74589;PMS5003;63093;56.112;40.348;2022-09-13T04:48:52;8.00;8.00;5.00
74589;PMS5003;63093;56.112;40.348;2022-09-13T04:50:53;8.00;8.00;5.75
74589;PMS5003;63093;56.112;40.348;2022-09-13T04:52:59;10.80;8.80;5.00
74589;PMS5003;63093;56.112;40.348;2022-09-13T04:55:01;12.60;10.20;5.00
74589;PMS5003;63093;56.112;40.348;2022-09-13T05:10:06;28.50;21.50;12.00
74589;PMS5003;63093;56.112;40.348;2022-09-13T05:12:06;19.50;16.00;10.00
74589;PMS5003;63093;56.112;40.348;2022-09-13T05:14:10;28.50;20.00;12.25
74589;PMS5003;63093;56.112;40.348;2022-09-13T05:16:11;24.00;19.00;11.00
74589;PMS5003;63093;56.112;40.348;2022-09-13T05:18:11;24.50;17.50;10.00
74589;PMS5003;63093;56.112;40.348;2022-09-13T05:20:12;21.00;15.50;9.00
74589;PMS5003;63093;56.112;40.348;2022-09-13T05:22:12;20.00;15.75;9.50
74589;PMS5003;63093;56.112;40.348;2022-09-13T05:24:13;20.50;12.75;9.50
74589;PMS5003;63093;56.112;40.348;2022-09-13T05:26:13;24.00;15.75;8.75
74589;PMS5003;63093;56.112;40.348;2022-09-13T05:28:14;19.50;15.50;8.25
74589;PMS5003;63093;56.112;40.348;2022-09-13T05:30:14;18.75;17.00;9.00
74589;PMS5003;63093;56.112;40.348;2022-09-13T05:32:15;18.50;14.25;9.25
74589;PMS5003;63093;56.112;40.348;2022-09-13T05:34:16;19.00;16.75;10.00
74589;PMS5003;63093;56.112;40.348;2022-09-13T05:36:19;23.50;15.75;9.50
74589;PMS5003;63093;56.112;40.348;2022-09-13T05:38:20;18.75;14.75;9.00
74589;PMS5003;63093;56.112;40.348;2022-09-13T05:40:21;19.00;14.75;8.25
74589;PMS5003;63093;56.112;40.348;2022-09-13T05:42:21;18.50;14.50;9.00
74589;PMS5003;63093;56.112;40.348;2022-09-13T05:44:22;17.75;10.00;6.50
74589;PMS5003;63093;56.112;40.348;2022-09-13T05:46:22;19.25;14.25;7.75
74589;PMS5003;63093;56.112;40.348;2022-09-13T05:48:23;15.50;14.00;8.25
74589;PMS5003;63093;56.112;40.348;2022-09-13T05:50:23;20.00;14.75;8.00
74589;PMS5003;63093;56.112;40.348;2022-09-13T05:52:24;17.25;15.25;8.75
74589;PMS5003;63093;56.112;40.348;2022-09-13T05:54:25;18.00;16.50;10.00
74589;PMS5003;63093;56.112;40.348;2022-09-13T05:56:27;20.75;15.25;8.00
74589;PMS5003;63093;56.112;40.348;2022-09-13T05:58:27;17.25;14.50;9.50
74589;PMS5003;63093;56.112;40.348;2022-09-13T06:00:28;18.25;16.50;8.00
74589;PMS5003;63093;56.112;40.348;2022-09-13T06:02:30;13.25;12.00;7.25
74589;PMS5003;63093;56.112;40.348;2022-09-13T06:04:31;18.25;17.25;9.00
74589;PMS5003;63093;56.112;40.348;2022-09-13T06:06:31;15.50;14.00;8.25
74589;PMS5003;63093;56.112;40.348;2022-09-13T06:08:34;15.50;14.00;7.50
74589;PMS5003;63093;56.112;40.348;2022-09-13T06:10:35;13.00;11.75;7.50
74589;PMS5003;63093;56.112;40.348;2022-09-13T06:12:35;13.75;11.75;7.00
74589;PMS5003;63093;56.112;40.348;2022-09-13T06:14:36;22.00;15.50;7.50
74589;PMS5003;63093;56.112;40.348;2022-09-13T06:16:36;14.50;11.75;6.75
74589;PMS5003;63093;56.112;40.348;2022-09-13T06:18:37;17.25;15.50;8.25
74589;PMS5003;63093;56.112;40.348;2022-09-13T06:20:37;22.25;16.50;10.00
74589;PMS5003;63093;56.112;40.348;2022-09-13T06:22:38;17.00;13.50;7.50
74589;PMS5003;63093;56.112;40.348;2022-09-13T06:24:38;23.75;17.00;9.75
74589;PMS5003;63093;56.112;40.348;2022-09-13T06:26:39;14.50;12.75;7.00
74589;PMS5003;63093;56.112;40.348;2022-09-13T06:28:39;17.00;14.00;8.00
74589;PMS5003;63093;56.112;40.348;2022-09-13T06:30:40;14.00;12.75;9.00
74589;PMS5003;63093;56.112;40.348;2022-09-13T06:32:40;16.25;15.50;10.25
74589;PMS5003;63093;56.112;40.348;2022-09-13T06:34:41;14.75;12.75;9.50
74589;PMS5003;63093;56.112;40.348;2022-09-13T06:36:41;17.50;15.75;9.00
74589;PMS5003;63093;56.112;40.348;2022-09-13T06:38:42;16.50;14.25;9.00
74589;PMS5003;63093;56.112;40.348;2022-09-13T06:40:43;14.50;14.25;9.00
74589;PMS5003;63093;56.112;40.348;2022-09-13T06:42:45;15.00;14.25;8.75
74589;PMS5003;63093;56.112;40.348;2022-09-13T06:44:45;18.00;17.75;10.00
74589;PMS5003;63093;56.112;40.348;2022-09-13T06:46:47;17.75;14.25;9.00
74589;PMS5003;63093;56.112;40.348;2022-09-13T06:48:48;15.00;15.00;9.25
74589;PMS5003;63093;56.112;40.348;2022-09-13T06:50:48;16.00;14.50;8.25
74589;PMS5003;63093;56.112;40.348;2022-09-13T06:52:49;18.75;16.75;10.00
74589;PMS5003;63093;56.112;40.348;2022-09-13T06:54:49;18.25;16.25;9.00
74589;PMS5003;63093;56.112;40.348;2022-09-13T06:56:50;18.50;16.00;9.50
74589;PMS5003;63093;56.112;40.348;2022-09-13T06:58:51;10.25;9.50;4.00
74589;PMS5003;63093;56.112;40.348;2022-09-13T07:00:54;19.50;16.50;8.75
74589;PMS5003;63093;56.112;40.348;2022-09-13T07:02:54;15.00;14.00;8.25
74589;PMS5003;63093;56.112;40.348;2022-09-13T07:04:55;14.00;13.50;8.00
74589;PMS5003;63093;56.112;40.348;2022-09-13T07:06:55;13.75;13.75;8.75
74589;PMS5003;63093;56.112;40.348;2022-09-13T07:08:56;10.00;10.00;7.00
74589;PMS5003;63093;56.112;40.348;2022-09-13T07:10:57;18.50;14.50;9.25
74589;PMS5003;63093;56.112;40.348;2022-09-13T07:12:58;18.00;17.00;9.00
74589;PMS5003;63093;56.112;40.348;2022-09-13T07:14:58;14.50;14.50;8.75
74589;PMS5003;63093;56.112;40.348;2022-09-13T07:16:59;16.50;13.25;8.75
74589;PMS5003;63093;56.112;40.348;2022-09-13T07:19:01;16.00;15.50;9.50
74589;PMS5003;63093;56.112;40.348;2022-09-13T07:21:06;14.50;14.25;9.00
74589;PMS5003;63093;56.112;40.348;2022-09-13T07:23:07;15.75;15.50;8.75
74589;PMS5003;63093;56.112;40.348;2022-09-13T07:25:07;15.75;14.00;9.75
74589;PMS5003;63093;56.112;40.348;2022-09-13T07:27:08;18.50;14.75;9.00
74589;PMS5003;63093;56.112;40.348;2022-09-13T07:29:10;16.25;12.00;8.75
74589;PMS5003;63093;56.112;40.348;2022-09-13T07:31:17;13.75;13.75;8.00
74589;PMS5003;63093;56.112;40.348;2022-09-13T07:33:19;16.75;13.75;8.00
74589;PMS5003;63093;56.112;40.348;2022-09-13T07:35:20;14.00;12.75;9.00
74589;PMS5003;63093;56.112;40.348;2022-09-13T07:37:20;16.75;14.50;10.00
74589;PMS5003;63093;56.112;40.348;2022-09-13T07:39:21;14.75;13.00;8.00
74589;PMS5003;63093;56.112;40.348;2022-09-13T07:41:22;15.50;15.50;8.25
74589;PMS5003;63093;56.112;40.348;2022-09-13T07:43:24;19.25;16.75;10.00
74589;PMS5003;63093;56.112;40.348;2022-09-13T07:45:24;16.75;15.50;10.00
74589;PMS5003;63093;56.112;40.348;2022-09-13T07:47:25;14.00;12.25;8.00
74589;PMS5003;63093;56.112;40.348;2022-09-13T07:49:25;16.25;15.25;8.50
74589;PMS5003;63093;56.112;40.348;2022-09-13T07:51:27;17.25;15.50;8.00
74589;PMS5003;63093;56.112;40.348;2022-09-13T07:53:28;15.00;15.00;10.00
74589;PMS5003;63093;56.112;40.348;2022-09-13T07:55:29;14.75;13.75;8.50
74589;PMS5003;63093;56.112;40.348;2022-09-13T07:57:30;17.75;15.50;10.25
74589;PMS5003;63093;56.112;40.348;2022-09-13T07:59:30;15.50;14.00;9.00
74589;PMS5003;63093;56.112;40.348;2022-09-13T08:01:38;15.50;15.50;8.50
74589;PMS5003;63093;56.112;40.348;2022-09-13T08:03:39;16.25;16.00;8.75
74589;PMS5003;63093;56.112;40.348;2022-09-13T08:05:40;10.25;9.25;6.25
74589;PMS5003;63093;56.112;40.348;2022-09-13T08:07:41;15.75;12.75;8.00
74589;PMS5003;63093;56.112;40.348;2022-09-13T08:09:41;17.50;17.00;11.00
74589;PMS5003;63093;56.112;40.348;2022-09-13T08:11:45;14.00;13.00;8.00
74589;PMS5003;63093;56.112;40.348;2022-09-13T08:13:46;15.50;15.50;8.50
74589;PMS5003;63093;56.112;40.348;2022-09-13T08:15:47;14.75;14.00;9.75
74589;PMS5003;63093;56.112;40.348;2022-09-13T08:17:49;16.00;13.50;8.25
74589;PMS5003;63093;56.112;40.348;2022-09-13T08:19:49;12.00;11.00;8.00
74589;PMS5003;63093;56.112;40.348;2022-09-13T08:21:50;14.00;14.00;8.00
74589;PMS5003;63093;56.112;40.348;2022-09-13T08:23:56;13.75;13.25;6.00
74589;PMS5003;63093;56.112;40.348;2022-09-13T08:26:00;17.00;14.50;9.50
74589;PMS5003;63093;56.112;40.348;2022-09-13T08:28:08;15.75;12.50;8.00
74589;PMS5003;63093;56.112;40.348;2022-09-13T08:30:10;17.75;15.50;9.00
74589;PMS5003;63093;56.112;40.348;2022-09-13T08:32:10;15.00;15.00;9.00
74589;PMS5003;63093;56.112;40.348;2022-09-13T08:34:14;16.50;13.00;9.00
74589;PMS5003;63093;56.112;40.348;2022-09-13T08:36:15;14.50;13.75;9.00
74589;PMS5003;63093;56.112;40.348;2022-09-13T08:38:16;13.75;13.25;8.75
74589;PMS5003;63093;56.112;40.348;2022-09-13T08:40:17;14.50;11.50;8.25
74589;PMS5003;63093;56.112;40.348;2022-09-13T08:42:45;13.75;13.50;8.50
74589;PMS5003;63093;56.112;40.348;2022-09-13T08:44:41;12.25;12.25;9.00
74589;PMS5003;63093;56.112;40.348;2022-09-13T08:46:44;10.50;10.00;6.50
74589;PMS5003;63093;56.112;40.348;2022-09-13T08:48:46;16.25;15.00;9.00
74589;PMS5003;63093;56.112;40.348;2022-09-13T08:50:58;11.25;11.25;6.25
74589;PMS5003;63093;56.112;40.348;2022-09-13T08:55:22;15.00;14.00;8.00
74589;PMS5003;63093;56.112;40.348;2022-09-13T08:57:45;12.75;9.50;6.00
74589;PMS5003;63093;56.112;40.348;2022-09-13T08:59:58;11.50;10.50;7.00
74589;PMS5003;63093;56.112;40.348;2022-09-13T09:06:11;8.75;8.75;4.50
74589;PMS5003;63093;56.112;40.348;2022-09-13T09:08:37;11.50;11.50;7.50
74589;PMS5003;63093;56.112;40.348;2022-09-13T09:10:44;10.00;8.25;5.75
74589;PMS5003;63093;56.112;40.348;2022-09-13T09:12:49;10.50;10.00;6.50
74589;PMS5003;63093;56.112;40.348;2022-09-13T09:14:55;11.00;11.00;7.25
74589;PMS5003;63093;56.112;40.348;2022-09-13T09:17:04;12.25;12.25;7.75
74589;PMS5003;63093;56.112;40.348;2022-09-13T09:19:13;9.00;9.00;6.00
74589;PMS5003;63093;56.112;40.348;2022-09-13T09:21:16;9.00;9.00;6.00
74589;PMS5003;63093;56.112;40.348;2022-09-13T09:25:18;9.50;8.50;6.00
74589;PMS5003;63093;56.112;40.348;2022-09-13T09:27:20;11.75;10.50;6.50
74589;PMS5003;63093;56.112;40.348;2022-09-13T09:33:28;11.00;11.00;5.25
74589;PMS5003;63093;56.112;40.348;2022-09-13T09:37:31;8.75;8.75;6.00
74589;PMS5003;63093;56.112;40.348;2022-09-13T09:39:34;9.25;8.50;6.25
74589;PMS5003;63093;56.112;40.348;2022-09-13T09:41:38;9.50;8.50;6.25
74589;PMS5003;63093;56.112;40.348;2022-09-13T09:43:43;8.50;7.00;5.50
74589;PMS5003;63093;56.112;40.348;2022-09-13T09:45:45;8.75;7.50;4.75
74589;PMS5003;63093;56.112;40.348;2022-09-13T09:47:46;7.75;7.75;5.00
74589;PMS5003;63093;56.112;40.348;2022-09-13T09:49:50;7.50;7.50;5.00
74589;PMS5003;63093;56.112;40.348;2022-09-13T09:52:08;6.00;6.00;5.00
74589;PMS5003;63093;56.112;40.348;2022-09-13T09:54:10;8.50;8.25;5.75
74589;PMS5003;63093;56.112;40.348;2022-09-13T09:58:14;10.75;9.75;6.00
74589;PMS5003;63093;56.112;40.348;2022-09-13T10:00:18;8.00;6.00;3.50
74589;PMS5003;63093;56.112;40.348;2022-09-13T10:02:20;4.00;4.00;3.50
74589;PMS5003;63093;56.112;40.348;2022-09-13T10:04:20;7.75;7.75;5.00
74589;PMS5003;63093;56.112;40.348;2022-09-13T10:06:22;10.00;8.75;5.00
74589;PMS5003;63093;56.112;40.348;2022-09-13T10:08:27;11.50;9.50;4.75
74589;PMS5003;63093;56.112;40.348;2022-09-13T10:12:33;7.50;7.50;5.00
74589;PMS5003;63093;56.112;40.348;2022-09-13T10:14:38;6.50;5.50;3.75
74589;PMS5003;63093;56.112;40.348;2022-09-13T10:16:40;7.75;7.75;4.00
74589;PMS5003;63093;56.112;40.348;2022-09-13T10:18:41;8.00;8.00;5.00
74589;PMS5003;63093;56.112;40.348;2022-09-13T10:20:42;9.00;9.00;5.00
74589;PMS5003;63093;56.112;40.348;2022-09-13T10:25:31;6.50;6.50;5.00
74589;PMS5003;63093;56.112;40.348;2022-09-13T10:27:32;6.50;6.50;4.00
74589;PMS5003;63093;56.112;40.348;2022-09-13T10:29:34;8.00;8.00;3.50
74589;PMS5003;63093;56.112;40.348;2022-09-13T10:31:36;8.00;8.00;5.25
74589;PMS5003;63093;56.112;40.348;2022-09-13T10:33:38;8.50;6.50;4.00
74589;PMS5003;63093;56.112;40.348;2022-09-13T10:35:39;7.00;7.00;5.00
74589;PMS5003;63093;56.112;40.348;2022-09-13T10:37:40;7.75;5.75;4.00
74589;PMS5003;63093;56.112;40.348;2022-09-13T10:40:17;7.50;7.25;4.25
74589;PMS5003;63093;56.112;40.348;2022-09-13T10:42:08;7.00;7.00;4.75
74589;PMS5003;63093;56.112;40.348;2022-09-13T10:46:32;5.25;5.00;3.00
74589;PMS5003;63093;56.112;40.348;2022-09-13T10:48:43;5.50;5.50;4.00
74589;PMS5003;63093;56.112;40.348;2022-09-13T10:51:00;5.00;5.00;3.00
74589;PMS5003;63093;56.112;40.348;2022-09-13T10:53:01;8.50;8.00;4.75
74589;PMS5003;63093;56.112;40.348;2022-09-13T10:57:35;4.75;4.75;3.00
74589;PMS5003;63093;56.112;40.348;2022-09-13T10:59:36;5.50;3.50;1.00
74589;PMS5003;63093;56.112;40.348;2022-09-13T11:12:45;7.75;5.50;4.00
74589;PMS5003;63093;56.112;40.348;2022-09-13T11:17:15;4.00;4.00;2.75
74589;PMS5003;63093;56.112;40.348;2022-09-13T11:23:52;7.75;6.00;4.00
74589;PMS5003;63093;56.112;40.348;2022-09-13T11:28:19;5.75;5.25;3.50
74589;PMS5003;63093;56.112;40.348;2022-09-13T11:30:23;6.75;5.00;4.00
74589;PMS5003;63093;56.112;40.348;2022-09-13T11:34:35;6.00;6.00;3.75
74589;PMS5003;63093;56.112;40.348;2022-09-13T11:45:31;2.50;2.50;1.00
74589;PMS5003;63093;56.112;40.348;2022-09-13T11:56:32;5.25;5.00;3.25
74589;PMS5003;63093;56.112;40.348;2022-09-13T11:58:36;4.25;4.25;3.00
74589;PMS5003;63093;56.112;40.348;2022-09-13T12:00:45;3.75;3.50;2.00
74589;PMS5003;63093;56.112;40.348;2022-09-13T12:02:55;5.00;5.00;3.75
74589;PMS5003;63093;56.112;40.348;2022-09-13T12:05:02;4.25;3.00;1.50
74589;PMS5003;63093;56.112;40.348;2022-09-13T12:07:05;6.75;5.00;3.00
74589;PMS5003;63093;56.112;40.348;2022-09-13T12:09:14;7.00;7.00;3.00
74589;PMS5003;63093;56.112;40.348;2022-09-13T12:11:26;4.25;4.25;3.50
74589;PMS5003;63093;56.112;40.348;2022-09-13T12:13:31;4.00;4.00;3.00
74589;PMS5003;63093;56.112;40.348;2022-09-13T12:15:38;6.25;5.75;4.00
74589;PMS5003;63093;56.112;40.348;2022-09-13T12:17:39;4.25;4.25;3.00
74589;PMS5003;63093;56.112;40.348;2022-09-13T12:19:42;5.00;5.00;3.00
74589;PMS5003;63093;56.112;40.348;2022-09-13T12:21:44;5.25;5.25;3.50
74589;PMS5003;63093;56.112;40.348;2022-09-13T12:26:02;5.00;5.00;3.00
74589;PMS5003;63093;56.112;40.348;2022-09-13T12:28:12;5.75;5.75;4.00
74589;PMS5003;63093;56.112;40.348;2022-09-13T12:30:20;5.00;5.00;3.50
74589;PMS5003;63093;56.112;40.348;2022-09-13T12:32:21;5.00;5.00;4.00
74589;PMS5003;63093;56.112;40.348;2022-09-13T12:34:24;4.00;4.00;3.00
74589;PMS5003;63093;56.112;40.348;2022-09-13T12:50:14;5.00;5.00;3.50
74589;PMS5003;63093;56.112;40.348;2022-09-13T12:54:53;5.75;5.75;2.25
74589;PMS5003;63093;56.112;40.348;2022-09-13T13:05:30;5.75;5.75;4.00
74589;PMS5003;63093;56.112;40.348;2022-09-13T13:07:33;4.50;4.50;3.25
74589;PMS5003;63093;56.112;40.348;2022-09-13T13:09:36;4.50;4.50;3.50
74589;PMS5003;63093;56.112;40.348;2022-09-13T13:11:45;4.50;4.50;2.50
74589;PMS5003;63093;56.112;40.348;2022-09-13T13:13:57;3.75;3.75;2.00
74589;PMS5003;63093;56.112;40.348;2022-09-13T13:15:59;5.75;5.75;3.00
74589;PMS5003;63093;56.112;40.348;2022-09-13T13:18:18;4.00;4.00;3.00
74589;PMS5003;63093;56.112;40.348;2022-09-13T13:24:45;6.50;5.75;3.00
74589;PMS5003;63093;56.112;40.348;2022-09-13T13:26:48;5.00;5.00;3.00
74589;PMS5003;63093;56.112;40.348;2022-09-13T13:29:03;5.75;4.00;3.00
74589;PMS5003;63093;56.112;40.348;2022-09-13T13:31:06;4.75;4.75;3.25
74589;PMS5003;63093;56.112;40.348;2022-09-13T13:33:20;5.00;5.00;3.50
74589;PMS5003;63093;56.112;40.348;2022-09-13T13:35:27;5.00;4.50;3.75
74589;PMS5003;63093;56.112;40.348;2022-09-13T13:37:30;5.00;5.00;3.50
74589;PMS5003;63093;56.112;40.348;2022-09-13T13:39:33;3.50;3.50;2.50
74589;PMS5003;63093;56.112;40.348;2022-09-13T13:43:35;6.25;6.25;3.25
74589;PMS5003;63093;56.112;40.348;2022-09-13T13:45:36;5.50;5.50;4.00
74589;PMS5003;63093;56.112;40.348;2022-09-13T13:47:40;3.25;3.25;2.50
74589;PMS5003;63093;56.112;40.348;2022-09-13T13:49:42;4.50;4.50;3.00
74589;PMS5003;63093;56.112;40.348;2022-09-13T13:51:45;4.25;4.25;3.25
74589;PMS5003;63093;56.112;40.348;2022-09-13T13:53:47;4.50;4.50;3.50
74589;PMS5003;63093;56.112;40.348;2022-09-13T13:55:49;5.25;5.25;3.75
74589;PMS5003;63093;56.112;40.348;2022-09-13T14:00:19;6.50;6.50;3.50
74589;PMS5003;63093;56.112;40.348;2022-09-13T14:02:22;7.00;6.00;4.25
74589;PMS5003;63093;56.112;40.348;2022-09-13T14:07:11;6.00;6.00;4.00
74589;PMS5003;63093;56.112;40.348;2022-09-13T14:09:19;7.25;6.25;3.25
74589;PMS5003;63093;56.112;40.348;2022-09-13T14:13:45;6.50;6.50;4.25
74589;PMS5003;63093;56.112;40.348;2022-09-13T14:16:02;7.50;5.00;3.25
74589;PMS5003;63093;56.112;40.348;2022-09-13T14:20:23;6.75;6.00;4.25
74589;PMS5003;63093;56.112;40.348;2022-09-13T14:22:25;7.75;7.75;4.00
74589;PMS5003;63093;56.112;40.348;2022-09-13T14:24:25;6.00;6.00;4.00
74589;PMS5003;63093;56.112;40.348;2022-09-13T14:26:26;6.00;6.00;5.00
74589;PMS5003;63093;56.112;40.348;2022-09-13T14:28:26;6.00;5.00;3.00
74589;PMS5003;63093;56.112;40.348;2022-09-13T14:30:30;6.00;6.00;4.00
74589;PMS5003;63093;56.112;40.348;2022-09-13T14:32:38;8.00;6.75;4.00
74589;PMS5003;63093;56.112;40.348;2022-09-13T14:34:49;7.00;5.25;3.50